WetterOnline ( https://www.wetteronline.de )

Wetter aktuell Naila

Aktuelles Wetter: Hof/Flughafen (568m)

6-stündlich | Neueste Meldungen
Ortszeit Temperatur Wetter
Do, 28.10. 8:00 3.9° C Nebel
Do, 28.10. 2:00 5.5° C Nebel
Mi, 27.10. 20:00 8.5° C bedeckt
Mi, 27.10. 14:00 9.5° C bedeckt
Mi, 27.10. 8:00 6.8° C bedeckt
Mi, 27.10. 2:00 7.9° C bewölkt
Di, 26.10. 20:00 7.7° C wolkig
Di, 26.10. 14:00 9.1° C bedeckt
Ortszeit Temperatur Wetter
Do, 28.10. 10:00 4.5° C leicht bewölkt
Do, 28.10. 9:50 4.5° C leicht bewölkt
Do, 28.10. 9:40 4.0° C wolkig
Do, 28.10. 9:30 4.3° C wolkig
Do, 28.10. 9:20 4.3° C wolkig
Do, 28.10. 9:10 4.1° C Nebel
Do, 28.10. 9:00 3.6° C Nebel
Do, 28.10. 8:30 3.8° C Nebel
Do, 28.10. 8:00 3.9° C Nebel
Do, 28.10. 7:30 4.0° C Nebel
Do, 28.10. 7:00 4.0° C bedeckt
Ortszeit Relative Feuchte Sichtweite
Do, 28.10. 8:00 100% 100 m
Do, 28.10. 2:00 98% 0.2 km
Mi, 27.10. 20:00 88% 60 km
Mi, 27.10. 14:00 87% 29 km
Mi, 27.10. 8:00 93% 12 km
Mi, 27.10. 2:00 93% 13 km
Di, 26.10. 20:00 90% 20 km
Di, 26.10. 14:00 80% 35 km
Ortszeit Relative Feuchte Sichtweite
Do, 28.10. 10:00 100% 4.3 km
Do, 28.10. 9:50 100% -
Do, 28.10. 9:40 100% -
Do, 28.10. 9:30 100% 6 km
Do, 28.10. 9:20 100% -
Do, 28.10. 9:10 100% -
Do, 28.10. 9:00 100% 100 m
Do, 28.10. 8:30 100% 100 m
Do, 28.10. 8:00 100% 100 m
Do, 28.10. 7:30 99% 0.2 km
Do, 28.10. 7:00 99% -
Ortszeit Niederschlagsmenge Niederschlagsart
Do, 28.10. 8:00 0.0 l/m2 in 12 Std. -
Do, 28.10. 2:00 0.0 l/m2 in 6 Std. -
Mi, 27.10. 20:00 0.1 l/m2 in 12 Std. Sprühregen
Mi, 27.10. 14:00 0.0 l/m2 in 6 Std. -
Mi, 27.10. 8:00 0.0 l/m2 in 12 Std. -
Mi, 27.10. 2:00 0.1 l/m2 in 6 Std. -
Di, 26.10. 20:00 0.1 l/m2 in 12 Std. Regen
Di, 26.10. 14:00 0.1 l/m2 in 6 Std. Regen
Ortszeit Niederschlagsmenge Niederschlagsart
Do, 28.10. 10:00 0.0 l/m2 in 1 Std. -
Do, 28.10. 9:50 keine Meldung -
Do, 28.10. 9:40 keine Meldung -
Do, 28.10. 9:30 0.0 l/m2 in 1 Std. -
Do, 28.10. 9:20 keine Meldung -
Do, 28.10. 9:10 keine Meldung -
Do, 28.10. 9:00 0.0 l/m2 in 1 Std. -
Do, 28.10. 8:30 0.0 l/m2 in 1 Std. -
Do, 28.10. 8:00 0.0 l/m2 in 1 Std. -
Do, 28.10. 7:30 0.0 l/m2 in 1 Std. -
Do, 28.10. 7:00 0.0 l/m2 in 1 Std. -
Ortszeit Stärke Spitze Richtung
km/h Bft. km/h Grad Sektor
Do, 28.10. 8:00 7 2 18 140° SO
Do, 28.10. 2:00 7 2 17 150° SO
Mi, 27.10. 20:00 6 1 20 200° S
Mi, 27.10. 14:00 9 2 24 190° S
Mi, 27.10. 8:00 13 3 30 240° SW
Mi, 27.10. 2:00 7 2 25 210° SW
Di, 26.10. 20:00 7 2 32 200° S
Di, 26.10. 14:00 14 3 29 240° SW
Ortszeit Stärke Spitze Richtung
km/h Bft. km/h Grad Sektor
Do, 28.10. 10:00 6 1 13 150° SO
Do, 28.10. 9:50 6 1 - 150° SO
Do, 28.10. 9:40 7 2 - 150° SO
Do, 28.10. 9:30 7 2 11 140° SO
Do, 28.10. 9:20 7 2 - 140° SO
Do, 28.10. 9:10 6 1 - 150° SO
Do, 28.10. 9:00 6 1 13 140° SO
Do, 28.10. 8:30 7 2 14 140° SO
Do, 28.10. 8:00 7 2 18 140° SO
Do, 28.10. 7:30 11 2 18 150° SO
Do, 28.10. 7:00 9 2 17 150° SO
Ortszeit Untergrenze Bedeckung Gattung
total tief tief mittel hoch
Do, 28.10. 8:00 <30 m 8/8 0/8 - - -
Do, 28.10. 2:00 <30 m 8/8 0/8 - - -
Mi, 27.10. 20:00 210 m 8/8 8/8 - - -
Mi, 27.10. 14:00 270 m 8/8 8/8 - - -
Mi, 27.10. 8:00 120 m 8/8 8/8 - - -
Mi, 27.10. 2:00 180 m 8/8 7/8 - - -
Di, 26.10. 20:00 7200 m 8/8 0/8 - - -
Di, 26.10. 14:00 360 m 8/8 8/8 - - -
Ortszeit Bedeckungsgrad in Achtel und Wolkenuntergrenze
Do, 28.10. 10:00 4(<30m)
Do, 28.10. 9:50 4(<30m)
Do, 28.10. 9:40 6(<30m)
Do, 28.10. 9:30 5(<30m)
Do, 28.10. 9:20 5(<30m)
Do, 28.10. 9:10 8(<30m)
Do, 28.10. 9:00 8(<30m)
Do, 28.10. 8:30 8(<30m)
Do, 28.10. 8:00 8(<30m)
Do, 28.10. 7:30 8(<30m)
Do, 28.10. 7:00 8(<30m)
Ortszeit Luftdruck NN (hPa) Tendenz (hPa in 3 Std.)
Do, 28.10. 8:00 1025 - 0,5
Do, 28.10. 2:00 1026 - 0,7
Mi, 27.10. 20:00 1026 - 0,1
Mi, 27.10. 14:00 1027 - 0,5
Mi, 27.10. 8:00 1027 + 0,8
Mi, 27.10. 2:00 1026 + 0,1
Di, 26.10. 20:00 1025 + 1,4
Di, 26.10. 14:00 1023 + 0,1
Ortszeit Luftdruck NN (hPa) Tendenz (hPa in 3 Std.)
Do, 28.10. 10:00 1024 - 0,4
Do, 28.10. 9:50 1024 keine Meldung
Do, 28.10. 9:40 1025 keine Meldung
Do, 28.10. 9:30 1025 - 0,2
Do, 28.10. 9:20 1025 keine Meldung
Do, 28.10. 9:10 1025 keine Meldung
Do, 28.10. 9:00 1025 - 0,4
Do, 28.10. 8:30 1025 - 0,4
Do, 28.10. 8:00 1025 - 0,5
Do, 28.10. 7:30 1025 - 0,7
Do, 28.10. 7:00 1025 - 0,5
Ortszeit Schneehöhe (cm)
Do, 28.10. 8:00 0
Do, 28.10. 2:00 0
Mi, 27.10. 20:00 0
Mi, 27.10. 14:00 0
Mi, 27.10. 8:00 0
Mi, 27.10. 2:00 0
Di, 26.10. 20:00 0
Di, 26.10. 14:00 0
Ortszeit Schneehöhe (cm)
Do, 28.10. 10:00 0
Do, 28.10. 9:50 0
Do, 28.10. 9:40 0
Do, 28.10. 9:30 0
Do, 28.10. 9:20 0
Do, 28.10. 9:10 0
Do, 28.10. 9:00 0
Do, 28.10. 8:30 0
Do, 28.10. 8:00 0
Do, 28.10. 7:30 0
Do, 28.10. 7:00 0
Link zu dieser Seite / Seite empfehlen

Das Wetter in ...